Terminal Aerodrome Forecast
Issued by NWS Cleveland, OH

Home | Current Version | Previous Version | Text Only | Print | Product List | Glossary On
Versions: 1 2 3 4 5 6 7 8 9 10 11 12 13 14 15 16 17 18 19 20 21 22
000
FTUS41 KCLE 290540
TAFMFD
TAF
KMFD 290540Z 2906/3006 VRB03KT P6SM SCT060 BKN250
     FM291000 01003KT 5SM BR SCT007
      TEMPO 2910/2913 2SM BR BKN007
     FM291400 03008KT P6SM SCT050
     FM292300 01003KT P6SM SKC=

USA.gov is the U.S. government's official web portal to all federal, state and local government web resources and services.